sensor_id;sensor_type;location;lat;lon;timestamp;pressure;altitude;pressure_sealevel;temperature;humidity
9839;BME280;4958;48.150;11.506;2023-05-27T00:02:17;96216.28;;;18.53;54.34
9839;BME280;4958;48.150;11.506;2023-05-27T00:04:43;96219.28;;;18.57;54.45
9839;BME280;4958;48.150;11.506;2023-05-27T00:07:10;96219.69;;;18.54;54.95
9839;BME280;4958;48.150;11.506;2023-05-27T00:09:36;96214.50;;;18.54;54.55
9839;BME280;4958;48.150;11.506;2023-05-27T00:12:04;96214.91;;;18.51;54.48
9839;BME280;4958;48.150;11.506;2023-05-27T00:14:31;96210.06;;;18.61;54.42
9839;BME280;4958;48.150;11.506;2023-05-27T00:16:57;96217.50;;;18.51;54.70
9839;BME280;4958;48.150;11.506;2023-05-27T00:19:24;96205.69;;;18.48;54.78
9839;BME280;4958;48.150;11.506;2023-05-27T00:21:52;96204.69;;;18.49;54.86
9839;BME280;4958;48.150;11.506;2023-05-27T00:24:19;96212.38;;;18.38;55.76
9839;BME280;4958;48.150;11.506;2023-05-27T00:26:46;96211.38;;;18.39;55.58
9839;BME280;4958;48.150;11.506;2023-05-27T00:29:15;96209.75;;;18.44;55.58
9839;BME280;4958;48.150;11.506;2023-05-27T00:31:42;96213.00;;;18.33;55.42
9839;BME280;4958;48.150;11.506;2023-05-27T00:34:08;96206.47;;;18.24;56.03
9839;BME280;4958;48.150;11.506;2023-05-27T00:36:37;96208.06;;;18.25;56.04
9839;BME280;4958;48.150;11.506;2023-05-27T00:39:03;96211.75;;;18.04;56.24
9839;BME280;4958;48.150;11.506;2023-05-27T00:41:31;96209.16;;;18.04;56.32
9839;BME280;4958;48.150;11.506;2023-05-27T00:43:57;96210.38;;;17.95;56.82
9839;BME280;4958;48.150;11.506;2023-05-27T00:46:25;96207.44;;;17.85;57.12
9839;BME280;4958;48.150;11.506;2023-05-27T00:48:51;96205.25;;;17.75;57.62
9839;BME280;4958;48.150;11.506;2023-05-27T00:51:18;96205.25;;;17.75;57.52
9839;BME280;4958;48.150;11.506;2023-05-27T00:53:44;96202.44;;;17.77;57.02
9839;BME280;4958;48.150;11.506;2023-05-27T00:56:13;96210.88;;;17.59;57.63
9839;BME280;4958;48.150;11.506;2023-05-27T00:58:41;96200.28;;;17.67;57.71
9839;BME280;4958;48.150;11.506;2023-05-27T01:01:08;96194.06;;;17.68;57.75
9839;BME280;4958;48.150;11.506;2023-05-27T01:03:38;96198.47;;;17.68;57.76
9839;BME280;4958;48.150;11.506;2023-05-27T01:06:13;96198.03;;;17.71;57.56
9839;BME280;4958;48.150;11.506;2023-05-27T01:08:46;96200.88;;;17.63;58.13
9839;BME280;4958;48.150;11.506;2023-05-27T01:11:17;96200.06;;;17.55;57.92
9839;BME280;4958;48.150;11.506;2023-05-27T01:13:52;96198.94;;;17.32;58.81
9839;BME280;4958;48.150;11.506;2023-05-27T01:16:20;96199.72;;;17.39;58.68
9839;BME280;4958;48.150;11.506;2023-05-27T01:18:48;96200.06;;;17.55;58.54
9839;BME280;4958;48.150;11.506;2023-05-27T01:21:17;96191.66;;;17.60;58.13
9839;BME280;4958;48.150;11.506;2023-05-27T01:23:48;96197.72;;;17.47;58.61
9839;BME280;4958;48.150;11.506;2023-05-27T01:26:18;96204.13;;;17.45;58.80
9839;BME280;4958;48.150;11.506;2023-05-27T01:28:45;96196.13;;;17.33;59.07
9839;BME280;4958;48.150;11.506;2023-05-27T01:31:15;96199.50;;;17.34;59.15
9839;BME280;4958;48.150;11.506;2023-05-27T01:33:48;96192.94;;;17.24;59.75
9839;BME280;4958;48.150;11.506;2023-05-27T01:36:20;96187.34;;;17.27;59.54
9839;BME280;4958;48.150;11.506;2023-05-27T01:38:51;96187.28;;;17.41;59.15
9839;BME280;4958;48.150;11.506;2023-05-27T01:41:19;96181.09;;;17.42;59.04
9839;BME280;4958;48.150;11.506;2023-05-27T01:43:47;96187.75;;;17.31;59.35
9839;BME280;4958;48.150;11.506;2023-05-27T01:46:13;96187.53;;;17.26;59.33
9839;BME280;4958;48.150;11.506;2023-05-27T01:48:40;96187.94;;;17.16;59.92
9839;BME280;4958;48.150;11.506;2023-05-27T01:51:09;96184.56;;;17.09;59.96
9839;BME280;4958;48.150;11.506;2023-05-27T01:53:36;96182.56;;;16.98;60.50
9839;BME280;4958;48.150;11.506;2023-05-27T01:56:04;96185.19;;;16.91;60.61
9839;BME280;4958;48.150;11.506;2023-05-27T01:58:31;96193.78;;;16.85;60.94
9839;BME280;4958;48.150;11.506;2023-05-27T02:00:57;96197.56;;;16.83;61.17
9839;BME280;4958;48.150;11.506;2023-05-27T02:03:23;96191.16;;;16.79;61.53
9839;BME280;4958;48.150;11.506;2023-05-27T02:05:52;96186.38;;;16.69;61.70
9839;BME280;4958;48.150;11.506;2023-05-27T02:08:18;96190.94;;;16.61;61.74
9839;BME280;4958;48.150;11.506;2023-05-27T02:10:45;96193.91;;;16.57;61.74
9839;BME280;4958;48.150;11.506;2023-05-27T02:13:12;96189.59;;;16.71;61.67
9839;BME280;4958;48.150;11.506;2023-05-27T02:15:39;96185.19;;;16.72;61.57
9839;BME280;4958;48.150;11.506;2023-05-27T02:18:08;96177.38;;;16.65;61.91
9839;BME280;4958;48.150;11.506;2023-05-27T02:20:38;96184.31;;;16.58;62.07
9839;BME280;4958;48.150;11.506;2023-05-27T02:23:06;96189.13;;;16.61;61.89
9839;BME280;4958;48.150;11.506;2023-05-27T02:25:33;96185.38;;;16.64;62.05
9839;BME280;4958;48.150;11.506;2023-05-27T02:27:59;96180.78;;;16.72;61.95
9839;BME280;4958;48.150;11.506;2023-05-27T02:30:29;96181.16;;;16.76;61.60
9839;BME280;4958;48.150;11.506;2023-05-27T02:32:56;96182.38;;;16.73;62.01
9839;BME280;4958;48.150;11.506;2023-05-27T02:35:23;96185.19;;;16.72;61.75
9839;BME280;4958;48.150;11.506;2023-05-27T02:37:49;96183.38;;;16.72;61.88
9839;BME280;4958;48.150;11.506;2023-05-27T02:40:23;96176.94;;;16.62;62.14
9839;BME280;4958;48.150;11.506;2023-05-27T02:42:49;96181.72;;;16.58;61.91
9839;BME280;4958;48.150;11.506;2023-05-27T02:45:16;96180.53;;;16.47;62.67
9839;BME280;4958;48.150;11.506;2023-05-27T02:47:44;96178.13;;;16.46;62.54
9839;BME280;4958;48.150;11.506;2023-05-27T02:50:11;96178.13;;;16.52;62.54
9839;BME280;4958;48.150;11.506;2023-05-27T02:52:37;96170.31;;;16.46;62.78
9839;BME280;4958;48.150;11.506;2023-05-27T02:55:05;96177.72;;;16.55;62.58
9839;BME280;4958;48.150;11.506;2023-05-27T02:57:32;96172.94;;;16.52;62.03
9839;BME280;4958;48.150;11.506;2023-05-27T02:59:59;96177.50;;;16.44;62.62
9839;BME280;4958;48.150;11.506;2023-05-27T03:02:25;96170.13;;;16.34;62.95
9839;BME280;4958;48.150;11.506;2023-05-27T03:04:56;96172.31;;;16.37;62.98
9839;BME280;4958;48.150;11.506;2023-05-27T03:07:23;96170.50;;;16.38;62.61
9839;BME280;4958;48.150;11.506;2023-05-27T03:13:26;96176.88;;;16.22;63.55
9839;BME280;4958;48.150;11.506;2023-05-27T03:15:53;96165.69;;;16.28;63.06
9839;BME280;4958;48.150;11.506;2023-05-27T03:18:20;96168.31;;;16.28;62.94
9839;BME280;4958;48.150;11.506;2023-05-27T03:20:49;96165.69;;;16.28;63.12
9839;BME280;4958;48.150;11.506;2023-05-27T03:23:16;96172.69;;;16.21;62.84
9839;BME280;4958;48.150;11.506;2023-05-27T03:25:42;96166.69;;;16.14;63.26
9839;BME280;4958;48.150;11.506;2023-05-27T03:28:09;96166.66;;;16.07;63.17
9839;BME280;4958;48.150;11.506;2023-05-27T03:30:35;96169.03;;;16.02;63.74
9839;BME280;4958;48.150;11.506;2023-05-27T03:33:03;96168.22;;;15.95;63.92
9839;BME280;4958;48.150;11.506;2023-05-27T03:35:29;96174.22;;;15.96;63.94
9839;BME280;4958;48.150;11.506;2023-05-27T03:37:57;96168.84;;;16.04;63.94
9839;BME280;4958;48.150;11.506;2023-05-27T03:40:24;96169.44;;;16.06;63.62
9839;BME280;4958;48.150;11.506;2023-05-27T03:42:50;96176.44;;;16.05;62.82
9839;BME280;4958;48.150;11.506;2023-05-27T03:45:18;96173.19;;;15.90;64.11
9839;BME280;4958;48.150;11.506;2023-05-27T03:47:44;96170.81;;;15.88;64.06
9839;BME280;4958;48.150;11.506;2023-05-27T03:50:10;96180.97;;;15.83;64.33
9839;BME280;4958;48.150;11.506;2023-05-27T03:52:39;96172.41;;;15.89;64.06
9839;BME280;4958;48.150;11.506;2023-05-27T03:55:08;96174.97;;;15.83;64.33
9839;BME280;4958;48.150;11.506;2023-05-27T03:57:35;96167.44;;;15.95;63.81
9839;BME280;4958;48.150;11.506;2023-05-27T04:00:02;96170.59;;;15.90;63.88
9839;BME280;4958;48.150;11.506;2023-05-27T04:02:31;96164.66;;;15.96;63.94
9839;BME280;4958;48.150;11.506;2023-05-27T04:04:57;96164.66;;;16.09;63.65
9839;BME280;4958;48.150;11.506;2023-05-27T04:07:24;96165.44;;;16.03;63.60
9839;BME280;4958;48.150;11.506;2023-05-27T04:09:52;96171.06;;;16.07;63.63
9839;BME280;4958;48.150;11.506;2023-05-27T04:12:20;96172.28;;;16.11;63.36
9839;BME280;4958;48.150;11.506;2023-05-27T04:14:46;96166.09;;;16.25;62.91
9839;BME280;4958;48.150;11.506;2023-05-27T04:17:13;96170.72;;;16.30;62.67
9839;BME280;4958;48.150;11.506;2023-05-27T04:19:39;96166.91;;;16.39;62.41
9839;BME280;4958;48.150;11.506;2023-05-27T04:22:06;96169.31;;;16.47;62.09
9839;BME280;4958;48.150;11.506;2023-05-27T04:24:34;96170.53;;;16.57;61.80
9839;BME280;4958;48.150;11.506;2023-05-27T04:27:00;96175.75;;;16.64;61.05
9839;BME280;4958;48.150;11.506;2023-05-27T04:29:29;96170.78;;;16.69;60.99
9839;BME280;4958;48.150;11.506;2023-05-27T04:31:57;96179.56;;;16.75;61.04
9839;BME280;4958;48.150;11.506;2023-05-27T04:34:23;96178.75;;;16.81;60.66
9839;BME280;4958;48.150;11.506;2023-05-27T04:36:51;96179.19;;;16.91;60.22
9839;BME280;4958;48.150;11.506;2023-05-27T04:39:20;96181.19;;;16.89;60.41
9839;BME280;4958;48.150;11.506;2023-05-27T04:41:47;96175.97;;;16.89;60.18
9839;BME280;4958;48.150;11.506;2023-05-27T04:44:13;96177.38;;;16.91;59.72
9839;BME280;4958;48.150;11.506;2023-05-27T04:46:41;96177.94;;;17.00;59.48
9839;BME280;4958;48.150;11.506;2023-05-27T04:49:08;96174.16;;;17.09;59.50
9839;BME280;4958;48.150;11.506;2023-05-27T04:51:35;96171.34;;;17.04;59.30
9839;BME280;4958;48.150;11.506;2023-05-27T04:54:02;96167.34;;;17.02;59.63
9839;BME280;4958;48.150;11.506;2023-05-27T04:56:29;96160.53;;;16.94;59.40
9839;BME280;4958;48.150;11.506;2023-05-27T04:58:55;96170.56;;;16.84;59.00
9839;BME280;4958;48.150;11.506;2023-05-27T05:01:21;96169.16;;;16.95;59.66
9839;BME280;4958;48.150;11.506;2023-05-27T05:03:51;96165.16;;;16.85;59.40
9839;BME280;4958;48.150;11.506;2023-05-27T05:06:28;96171.97;;;16.93;59.61
9839;BME280;4958;48.150;11.506;2023-05-27T05:08:54;96170.75;;;17.02;59.56
9839;BME280;4958;48.150;11.506;2023-05-27T05:11:21;96165.72;;;17.20;59.17
9839;BME280;4958;48.150;11.506;2023-05-27T05:13:48;96169.28;;;17.33;58.05
9839;BME280;4958;48.150;11.506;2023-05-27T05:16:17;96177.31;;;17.31;57.94
9839;BME280;4958;48.150;11.506;2023-05-27T05:18:43;96175.94;;;17.22;58.73
9839;BME280;4958;48.150;11.506;2023-05-27T05:21:11;96174.13;;;17.29;58.26
9839;BME280;4958;48.150;11.506;2023-05-27T05:23:38;96173.94;;;17.24;58.15
9839;BME280;4958;48.150;11.506;2023-05-27T05:26:05;96179.50;;;17.34;58.01
9839;BME280;4958;48.150;11.506;2023-05-27T05:28:32;96172.06;;;17.44;57.34
9839;BME280;4958;48.150;11.506;2023-05-27T05:30:59;96168.88;;;17.42;56.48
9839;BME280;4958;48.150;11.506;2023-05-27T05:33:26;96174.69;;;17.44;56.45
9839;BME280;4958;48.150;11.506;2023-05-27T05:35:52;96182.28;;;17.46;56.54
9839;BME280;4958;48.150;11.506;2023-05-27T05:38:20;96179.09;;;17.44;55.72
9839;BME280;4958;48.150;11.506;2023-05-27T05:40:48;96184.28;;;17.37;55.99
9839;BME280;4958;48.150;11.506;2023-05-27T05:43:17;96178.47;;;17.48;56.27
9839;BME280;4958;48.150;11.506;2023-05-27T05:45:44;96178.13;;;17.32;56.15
9839;BME280;4958;48.150;11.506;2023-05-27T05:48:10;96179.94;;;17.18;56.60
9839;BME280;4958;48.150;11.506;2023-05-27T05:50:37;96184.53;;;17.16;56.03
9839;BME280;4958;48.150;11.506;2023-05-27T05:53:03;96184.94;;;17.19;56.19
9839;BME280;4958;48.150;11.506;2023-05-27T05:55:31;96185.13;;;17.18;55.55
9839;BME280;4958;48.150;11.506;2023-05-27T05:57:57;96175.72;;;17.17;55.34
9839;BME280;4958;48.150;11.506;2023-05-27T06:00:24;96183.72;;;17.22;55.60
9839;BME280;4958;48.150;11.506;2023-05-27T06:02:52;96187.09;;;17.36;56.25
9839;BME280;4958;48.150;11.506;2023-05-27T06:05:19;96170.88;;;17.47;55.42
9839;BME280;4958;48.150;11.506;2023-05-27T06:07:45;96177.84;;;17.53;55.15
9839;BME280;4958;48.150;11.506;2023-05-27T06:10:12;96180.44;;;17.59;55.02
9839;BME280;4958;48.150;11.506;2023-05-27T06:12:40;96180.25;;;17.54;55.74
9839;BME280;4958;48.150;11.506;2023-05-27T06:15:08;96190.44;;;17.63;55.45
9839;BME280;4958;48.150;11.506;2023-05-27T06:17:34;96186.59;;;17.78;54.86
9839;BME280;4958;48.150;11.506;2023-05-27T06:20:01;96195.41;;;17.84;54.04
9839;BME280;4958;48.150;11.506;2023-05-27T06:22:27;96187.53;;;17.90;53.93
9839;BME280;4958;48.150;11.506;2023-05-27T06:24:54;96191.63;;;17.80;53.58
9839;BME280;4958;48.150;11.506;2023-05-27T06:27:23;96190.81;;;17.79;53.85
9839;BME280;4958;48.150;11.506;2023-05-27T06:29:51;96191.22;;;17.76;53.77
9839;BME280;4958;48.150;11.506;2023-05-27T06:32:17;96187.06;;;17.69;54.04
9839;BME280;4958;48.150;11.506;2023-05-27T06:34:44;96187.66;;;17.57;53.78
9839;BME280;4958;48.150;11.506;2023-05-27T06:37:11;96187.50;;;17.46;54.58
9839;BME280;4958;48.150;11.506;2023-05-27T06:39:37;96186.25;;;17.55;54.62
9839;BME280;4958;48.150;11.506;2023-05-27T06:42:05;96185.47;;;17.68;54.98
9839;BME280;4958;48.150;11.506;2023-05-27T06:44:32;96181.84;;;17.62;53.86
9839;BME280;4958;48.150;11.506;2023-05-27T06:46:59;96179.66;;;17.66;54.10
9839;BME280;4958;48.150;11.506;2023-05-27T06:49:27;96181.59;;;17.83;53.63
9839;BME280;4958;48.150;11.506;2023-05-27T06:51:53;96178.94;;;17.90;53.01
9839;BME280;4958;48.150;11.506;2023-05-27T06:54:20;96182.59;;;17.76;53.00
9839;BME280;4958;48.150;11.506;2023-05-27T06:56:46;96184.63;;;17.74;53.12
9839;BME280;4958;48.150;11.506;2023-05-27T06:59:13;96185.59;;;17.86;53.15
9839;BME280;4958;48.150;11.506;2023-05-27T07:01:42;96178.72;;;17.91;52.80
9839;BME280;4958;48.150;11.506;2023-05-27T07:04:10;96178.91;;;17.97;52.51
9839;BME280;4958;48.150;11.506;2023-05-27T07:06:36;96180.31;;;17.99;52.84
9839;BME280;4958;48.150;11.506;2023-05-27T07:09:03;96180.22;;;18.12;52.40
9839;BME280;4958;48.150;11.506;2023-05-27T07:11:31;96186.94;;;18.33;53.11
9839;BME280;4958;48.150;11.506;2023-05-27T07:13:58;96180.91;;;18.33;52.11
9839;BME280;4958;48.150;11.506;2023-05-27T07:16:24;96187.31;;;18.37;52.17
9839;BME280;4958;48.150;11.506;2023-05-27T07:18:51;96188.41;;;18.54;51.50
9839;BME280;4958;48.150;11.506;2023-05-27T07:21:19;96177.81;;;18.49;50.62
9839;BME280;4958;48.150;11.506;2023-05-27T07:23:45;96187.19;;;18.63;51.48
9839;BME280;4958;48.150;11.506;2023-05-27T07:26:12;96178.78;;;18.54;50.29
9839;BME280;4958;48.150;11.506;2023-05-27T07:28:38;96181.75;;;18.65;49.46
9839;BME280;4958;48.150;11.506;2023-05-27T07:31:04;96179.41;;;18.81;50.29
9839;BME280;4958;48.150;11.506;2023-05-27T07:33:31;96173.91;;;18.89;50.51
9839;BME280;4958;48.150;11.506;2023-05-27T07:35:58;96181.66;;;19.03;50.36
9839;BME280;4958;48.150;11.506;2023-05-27T07:38:26;96179.19;;;19.26;50.30
9839;BME280;4958;48.150;11.506;2023-05-27T07:40:52;96177.28;;;19.40;49.55
9839;BME280;4958;48.150;11.506;2023-05-27T07:43:19;96169.53;;;19.51;49.06
9839;BME280;4958;48.150;11.506;2023-05-27T07:45:45;96168.94;;;19.67;49.92
9839;BME280;4958;48.150;11.506;2023-05-27T07:48:13;96159.94;;;19.63;48.58
9839;BME280;4958;48.150;11.506;2023-05-27T07:50:40;96160.03;;;19.75;49.19
9839;BME280;4958;48.150;11.506;2023-05-27T07:53:06;96164.81;;;19.78;48.84
9839;BME280;4958;48.150;11.506;2023-05-27T07:55:34;96167.91;;;19.87;48.84
9839;BME280;4958;48.150;11.506;2023-05-27T07:58:02;96162.78;;;19.80;48.43
9839;BME280;4958;48.150;11.506;2023-05-27T08:00:29;96165.53;;;19.67;48.01
9839;BME280;4958;48.150;11.506;2023-05-27T08:02:55;96165.16;;;19.63;49.09
9839;BME280;4958;48.150;11.506;2023-05-27T08:05:22;96164.38;;;19.81;49.29
9839;BME280;4958;48.150;11.506;2023-05-27T08:07:48;96163.31;;;20.00;49.24
9839;BME280;4958;48.150;11.506;2023-05-27T08:10:15;96164.31;;;20.29;49.00
9839;BME280;4958;48.150;11.506;2023-05-27T08:12:43;96163.59;;;20.41;47.69
9839;BME280;4958;48.150;11.506;2023-05-27T08:15:09;96158.63;;;20.51;47.15
9839;BME280;4958;48.150;11.506;2023-05-27T08:17:35;96169.53;;;20.48;46.58
9839;BME280;4958;48.150;11.506;2023-05-27T08:20:02;96159.94;;;20.42;46.75
9839;BME280;4958;48.150;11.506;2023-05-27T08:22:31;96151.00;;;20.61;47.73
9839;BME280;4958;48.150;11.506;2023-05-27T08:24:57;96158.53;;;20.57;47.36
9839;BME280;4958;48.150;11.506;2023-05-27T08:27:43;96145.97;;;20.48;47.46
9839;BME280;4958;48.150;11.506;2023-05-27T08:30:12;96146.34;;;20.63;47.00
9839;BME280;4958;48.150;11.506;2023-05-27T08:32:40;96144.31;;;20.88;46.58
9839;BME280;4958;48.150;11.506;2023-05-27T08:35:06;96144.31;;;21.00;46.64
9839;BME280;4958;48.150;11.506;2023-05-27T08:37:33;96135.44;;;21.13;46.38
9839;BME280;4958;48.150;11.506;2023-05-27T08:40:00;96133.88;;;21.35;46.53
9839;BME280;4958;48.150;11.506;2023-05-27T08:42:30;96140.66;;;21.36;46.23
9839;BME280;4958;48.150;11.506;2023-05-27T08:44:58;96133.06;;;21.34;45.79
9839;BME280;4958;48.150;11.506;2023-05-27T08:47:25;96136.00;;;21.38;45.64
9839;BME280;4958;48.150;11.506;2023-05-27T08:49:52;96130.88;;;21.55;45.56
9839;BME280;4958;48.150;11.506;2023-05-27T08:52:19;96126.59;;;21.65;45.81
9839;BME280;4958;48.150;11.506;2023-05-27T08:54:46;96132.00;;;21.47;45.54
9839;BME280;4958;48.150;11.506;2023-05-27T08:57:19;96129.59;;;21.57;44.63
9839;BME280;4958;48.150;11.506;2023-05-27T08:59:47;96129.34;;;21.59;44.97
9839;BME280;4958;48.150;11.506;2023-05-27T09:02:17;96128.31;;;21.60;45.32
9839;BME280;4958;48.150;11.506;2023-05-27T09:04:46;96125.53;;;21.78;45.06
9839;BME280;4958;48.150;11.506;2023-05-27T09:07:13;96130.41;;;21.86;45.63
9839;BME280;4958;48.150;11.506;2023-05-27T09:09:40;96126.84;;;22.04;44.93
9839;BME280;4958;48.150;11.506;2023-05-27T09:12:07;96128.34;;;22.00;44.63
9839;BME280;4958;48.150;11.506;2023-05-27T09:14:34;96136.00;;;22.18;44.32
9839;BME280;4958;48.150;11.506;2023-05-27T09:17:05;96121.25;;;22.29;44.21
9839;BME280;4958;48.150;11.506;2023-05-27T09:19:34;96122.06;;;22.46;44.22
9839;BME280;4958;48.150;11.506;2023-05-27T09:22:01;96117.38;;;22.48;44.31
9839;BME280;4958;48.150;11.506;2023-05-27T09:24:28;96126.09;;;22.54;44.03
9839;BME280;4958;48.150;11.506;2023-05-27T09:26:57;96123.47;;;22.54;43.43
9839;BME280;4958;48.150;11.506;2023-05-27T09:29:25;96119.69;;;22.61;44.12
9839;BME280;4958;48.150;11.506;2023-05-27T09:31:53;96123.56;;;22.75;43.93
9839;BME280;4958;48.150;11.506;2023-05-27T09:34:20;96114.66;;;22.93;43.14
9839;BME280;4958;48.150;11.506;2023-05-27T09:36:52;96113.69;;;22.99;42.51
9839;BME280;4958;48.150;11.506;2023-05-27T09:52:49;96103.47;;;23.20;43.31
9839;BME280;4958;48.150;11.506;2023-05-27T10:02:10;96103.16;;;23.55;42.42
9839;BME280;4958;48.150;11.506;2023-05-27T10:04:42;96095.50;;;23.75;42.25
9839;BME280;4958;48.150;11.506;2023-05-27T10:07:09;96096.66;;;23.84;41.47
9839;BME280;4958;48.150;11.506;2023-05-27T10:09:37;96090.38;;;23.90;41.19
9839;BME280;4958;48.150;11.506;2023-05-27T10:12:05;96088.47;;;23.81;40.73
9839;BME280;4958;48.150;11.506;2023-05-27T10:14:32;96088.25;;;23.87;40.32
9839;BME280;4958;48.150;11.506;2023-05-27T10:17:00;96089.94;;;23.98;39.99
9839;BME280;4958;48.150;11.506;2023-05-27T10:19:26;96096.41;;;23.86;39.75
9839;BME280;4958;48.150;11.506;2023-05-27T10:21:53;96087.25;;;23.93;39.67
9839;BME280;4958;48.150;11.506;2023-05-27T10:24:19;96084.78;;;23.82;40.11
9839;BME280;4958;48.150;11.506;2023-05-27T10:27:02;96090.00;;;23.76;39.42
9839;BME280;4958;48.150;11.506;2023-05-27T10:29:35;96079.84;;;23.85;39.03
9839;BME280;4958;48.150;11.506;2023-05-27T10:32:03;96077.22;;;23.90;39.06
9839;BME280;4958;48.150;11.506;2023-05-27T10:34:34;96082.06;;;24.25;38.98
9839;BME280;4958;48.150;11.506;2023-05-27T10:37:00;96073.84;;;24.22;40.60
9839;BME280;4958;48.150;11.506;2023-05-27T10:39:27;96073.22;;;24.36;38.59
9839;BME280;4958;48.150;11.506;2023-05-27T10:41:55;96079.47;;;24.30;38.72
9839;BME280;4958;48.150;11.506;2023-05-27T10:44:27;96073.50;;;24.40;38.53
9839;BME280;4958;48.150;11.506;2023-05-27T10:46:59;96066.19;;;24.47;37.66
9839;BME280;4958;48.150;11.506;2023-05-27T10:49:34;96068.50;;;24.38;38.00
9839;BME280;4958;48.150;11.506;2023-05-27T10:52:06;96069.34;;;24.17;37.72
9839;BME280;4958;48.150;11.506;2023-05-27T10:54:36;96067.63;;;24.06;38.23
9839;BME280;4958;48.150;11.506;2023-05-27T10:57:03;96050.78;;;24.02;38.62
9839;BME280;4958;48.150;11.506;2023-05-27T10:59:48;96057.53;;;24.20;37.76
9839;BME280;4958;48.150;11.506;2023-05-27T11:02:14;96062.72;;;24.41;37.67
9839;BME280;4958;48.150;11.506;2023-05-27T11:04:41;96054.06;;;24.46;37.42
9839;BME280;4958;48.150;11.506;2023-05-27T11:07:07;96051.34;;;24.73;38.14
9839;BME280;4958;48.150;11.506;2023-05-27T11:09:43;96051.94;;;24.85;37.59
9839;BME280;4958;48.150;11.506;2023-05-27T11:12:13;96047.47;;;24.86;37.69
9839;BME280;4958;48.150;11.506;2023-05-27T11:14:43;96046.97;;;24.89;37.08
9839;BME280;4958;48.150;11.506;2023-05-27T11:17:09;96042.59;;;24.99;37.80
9839;BME280;4958;48.150;11.506;2023-05-27T11:19:43;96038.41;;;25.08;37.60
9839;BME280;4958;48.150;11.506;2023-05-27T11:22:11;96032.13;;;25.25;37.03
9839;BME280;4958;48.150;11.506;2023-05-27T11:24:38;96032.59;;;25.01;36.23
9839;BME280;4958;48.150;11.506;2023-05-27T11:27:08;96036.25;;;24.95;36.95
9839;BME280;4958;48.150;11.506;2023-05-27T11:29:36;96034.59;;;24.89;37.07
9839;BME280;4958;48.150;11.506;2023-05-27T11:32:05;96023.91;;;24.64;37.07
9839;BME280;4958;48.150;11.506;2023-05-27T11:34:33;96032.34;;;24.66;37.63
9839;BME280;4958;48.150;11.506;2023-05-27T11:37:01;96019.41;;;24.64;37.18
9839;BME280;4958;48.150;11.506;2023-05-27T11:39:30;96012.56;;;24.63;37.33
9839;BME280;4958;48.150;11.506;2023-05-27T11:41:56;96019.22;;;24.71;36.68
9839;BME280;4958;48.150;11.506;2023-05-27T11:44:24;96022.72;;;24.82;36.67
9839;BME280;4958;48.150;11.506;2023-05-27T11:46:57;96013.50;;;24.89;36.98
9839;BME280;4958;48.150;11.506;2023-05-27T11:49:26;96012.06;;;25.13;36.62
9839;BME280;4958;48.150;11.506;2023-05-27T11:51:55;96009.47;;;25.19;35.45
9839;BME280;4958;48.150;11.506;2023-05-27T11:54:23;96004.13;;;24.98;35.31
9839;BME280;4958;48.150;11.506;2023-05-27T11:56:51;95999.41;;;25.10;36.08
9839;BME280;4958;48.150;11.506;2023-05-27T11:59:19;95996.88;;;24.84;35.09
9839;BME280;4958;48.150;11.506;2023-05-27T12:01:46;96003.31;;;24.56;35.52
9839;BME280;4958;48.150;11.506;2023-05-27T12:04:13;96006.22;;;24.54;36.28
9839;BME280;4958;48.150;11.506;2023-05-27T12:06:41;95988.75;;;24.90;36.14
9839;BME280;4958;48.150;11.506;2023-05-27T12:09:09;95989.53;;;24.91;35.15
9839;BME280;4958;48.150;11.506;2023-05-27T12:11:36;95981.88;;;24.84;34.94
9839;BME280;4958;48.150;11.506;2023-05-27T12:14:03;95976.19;;;24.97;35.90
9839;BME280;4958;48.150;11.506;2023-05-27T12:16:30;95975.38;;;25.02;34.77
9839;BME280;4958;48.150;11.506;2023-05-27T12:18:57;95981.25;;;25.14;34.95
9839;BME280;4958;48.150;11.506;2023-05-27T12:21:23;95972.94;;;24.90;34.47
9839;BME280;4958;48.150;11.506;2023-05-27T12:23:52;95971.91;;;24.91;34.63
9839;BME280;4958;48.150;11.506;2023-05-27T12:26:18;95963.00;;;24.97;35.03
9839;BME280;4958;48.150;11.506;2023-05-27T12:28:45;95964.06;;;25.06;34.21
9839;BME280;4958;48.150;11.506;2023-05-27T12:31:12;95967.75;;;25.05;34.54
9839;BME280;4958;48.150;11.506;2023-05-27T12:33:38;95958.06;;;25.16;34.09
9839;BME280;4958;48.150;11.506;2023-05-27T12:36:05;95961.50;;;25.17;33.54
9839;BME280;4958;48.150;11.506;2023-05-27T12:38:31;95965.28;;;24.89;33.91
9839;BME280;4958;48.150;11.506;2023-05-27T12:40:59;95957.09;;;24.85;34.09
9839;BME280;4958;48.150;11.506;2023-05-27T12:43:26;95964.91;;;25.12;34.43
9839;BME280;4958;48.150;11.506;2023-05-27T12:45:55;95961.00;;;25.35;34.11
9839;BME280;4958;48.150;11.506;2023-05-27T12:48:29;95962.34;;;25.37;33.38
9839;BME280;4958;48.150;11.506;2023-05-27T12:50:56;95944.66;;;25.43;33.66
9839;BME280;4958;48.150;11.506;2023-05-27T12:53:23;95940.19;;;25.33;33.09
9839;BME280;4958;48.150;11.506;2023-05-27T12:55:49;95949.16;;;25.47;33.87
9839;BME280;4958;48.150;11.506;2023-05-27T12:58:17;95955.75;;;25.50;33.90
9839;BME280;4958;48.150;11.506;2023-05-27T13:00:44;95948.13;;;25.54;33.49
9839;BME280;4958;48.150;11.506;2023-05-27T13:03:10;95951.78;;;25.37;33.61
9839;BME280;4958;48.150;11.506;2023-05-27T13:05:36;95931.75;;;25.36;32.97
9839;BME280;4958;48.150;11.506;2023-05-27T13:08:04;95930.97;;;25.46;34.08
9839;BME280;4958;48.150;11.506;2023-05-27T13:10:30;95934.38;;;25.36;33.90
9839;BME280;4958;48.150;11.506;2023-05-27T13:12:58;95925.16;;;25.34;32.40
9839;BME280;4958;48.150;11.506;2023-05-27T13:15:28;95926.91;;;25.03;32.92
9839;BME280;4958;48.150;11.506;2023-05-27T13:17:54;95917.44;;;25.07;33.06
9839;BME280;4958;48.150;11.506;2023-05-27T13:20:23;95928.22;;;25.05;32.40
9839;BME280;4958;48.150;11.506;2023-05-27T13:22:50;95921.03;;;24.91;32.78
9839;BME280;4958;48.150;11.506;2023-05-27T13:25:18;95917.94;;;25.04;32.44
9839;BME280;4958;48.150;11.506;2023-05-27T13:27:44;95911.66;;;25.15;32.42
9839;BME280;4958;48.150;11.506;2023-05-27T13:30:12;95919.34;;;25.32;31.97
9839;BME280;4958;48.150;11.506;2023-05-27T13:32:41;95914.06;;;25.32;32.35
9839;BME280;4958;48.150;11.506;2023-05-27T13:35:08;95907.75;;;25.38;32.98
9839;BME280;4958;48.150;11.506;2023-05-27T13:37:36;95899.59;;;25.34;32.61